createdAt,value
2018-01-11T05:07:00.437Z,22.40
2018-01-11T05:09:27.290Z,27.07
2018-01-11T05:12:09.998Z,24.83
2018-01-11T05:14:36.800Z,24.97
2018-01-11T05:17:03.682Z,21.60
2018-01-11T05:19:30.590Z,21.47
2018-01-11T05:21:57.477Z,31.03
2018-01-11T05:24:24.284Z,25.40
2018-01-11T05:26:51.106Z,23.23
2018-01-11T05:29:17.881Z,22.97
2018-01-11T05:31:44.996Z,27.63
2018-01-11T05:34:11.940Z,28.83
2018-01-11T05:36:39.669Z,23.83
2018-01-11T05:39:06.501Z,18.93
2018-01-11T05:41:33.429Z,21.70
2018-01-11T05:44:00.270Z,22.10
2018-01-11T05:46:27.105Z,22.70
2018-01-11T05:48:54.040Z,26.23
2018-01-11T05:51:20.879Z,28.50
2018-01-11T05:53:47.705Z,21.50
2018-01-11T05:56:14.575Z,29.67
2018-01-11T05:58:41.408Z,25.30
2018-01-11T06:01:08.310Z,34.77
2018-01-11T06:03:35.127Z,23.30
2018-01-11T06:06:02.271Z,22.80
2018-01-11T06:08:29.106Z,20.47
2018-01-11T06:10:55.989Z,34.23
2018-01-11T06:13:22.810Z,22.67
2018-01-11T06:15:49.673Z,24.50
2018-01-11T06:18:16.507Z,25.40
2018-01-11T06:20:43.634Z,25.57
2018-01-11T06:23:10.432Z,29.60
2018-01-11T06:25:37.290Z,26.63
2018-01-11T06:28:04.068Z,27.00
2018-01-11T06:30:30.916Z,30.90
2018-01-11T06:32:57.777Z,27.23
2018-01-11T06:35:24.567Z,34.70
2018-01-11T06:37:51.400Z,30.53
2018-01-11T06:40:18.270Z,27.20
2018-01-11T06:42:45.463Z,32.97
2018-01-11T06:45:12.312Z,29.07
2018-01-11T06:47:39.203Z,26.43
2018-01-11T06:50:06.031Z,32.30
2018-01-11T06:52:33.165Z,29.80
2018-01-11T06:55:00.021Z,33.20
2018-01-11T06:57:26.807Z,42.23
2018-01-11T06:59:53.619Z,33.77
2018-01-11T07:02:20.500Z,30.43
2018-01-11T07:04:47.391Z,36.50
2018-01-11T07:07:14.166Z,26.43
2018-01-11T07:09:41.045Z,27.87
2018-01-11T07:12:07.858Z,31.07
2018-01-11T07:14:34.673Z,30.53
2018-01-11T07:17:01.520Z,37.70
2018-01-11T07:19:28.346Z,36.47
2018-01-11T07:21:55.128Z,32.73
2018-01-11T07:24:21.977Z,34.17
2018-01-11T07:26:48.768Z,29.73
2018-01-11T07:29:15.550Z,32.23
2018-01-11T07:31:42.395Z,35.13
2018-01-11T07:34:09.300Z,28.50
2018-01-11T07:36:36.148Z,37.60
2018-01-11T07:39:03.058Z,31.07
2018-01-11T07:41:29.909Z,31.07
2018-01-11T07:43:56.694Z,31.43
2018-01-11T07:46:23.621Z,34.57
2018-01-11T07:48:50.456Z,33.43
2018-01-11T07:51:17.297Z,33.17
2018-01-11T07:53:44.244Z,30.40
2018-01-11T07:56:11.075Z,39.00
2018-01-11T07:58:37.899Z,40.10
2018-01-11T08:01:04.786Z,30.27
2018-01-11T08:03:31.599Z,32.20
2018-01-11T08:05:58.466Z,31.03
2018-01-11T08:08:25.525Z,33.67
2018-01-11T08:10:52.425Z,37.37
2018-01-11T08:13:19.218Z,33.37
2018-01-11T08:15:46.441Z,34.00
2018-01-11T08:18:13.351Z,35.63
2018-01-11T08:20:40.250Z,32.80
2018-01-11T08:23:07.107Z,36.27
2018-01-11T08:25:33.992Z,38.97
2018-01-11T08:28:00.875Z,37.07
2018-01-11T08:30:27.718Z,34.20
2018-01-11T08:32:54.509Z,32.30
2018-01-11T08:35:21.301Z,36.30
2018-01-11T08:37:48.235Z,46.23
2018-01-11T08:40:15.151Z,51.77
2018-01-11T08:42:41.989Z,52.10
2018-01-11T08:45:08.851Z,46.53
2018-01-11T08:47:35.675Z,54.00
2018-01-11T08:50:02.493Z,45.37
2018-01-11T08:52:29.404Z,75.70
2018-01-11T08:54:56.448Z,42.83
2018-01-11T08:57:23.292Z,51.37
2018-01-11T08:59:50.168Z,48.33
2018-01-11T09:02:17.145Z,57.00
2018-01-11T09:04:44.064Z,73.30
2018-01-11T09:07:10.884Z,77.53
2018-01-11T09:09:38.327Z,102.40
2018-01-11T09:12:05.163Z,87.87
2018-01-11T09:14:32.018Z,60.73
2018-01-11T09:16:59.087Z,84.67
2018-01-11T09:19:25.954Z,62.50
2018-01-11T09:21:52.809Z,70.70
2018-01-11T09:24:19.687Z,51.90
2018-01-11T09:26:46.530Z,58.07
2018-01-11T09:29:13.413Z,54.37
2018-01-11T09:31:40.242Z,60.17
2018-01-11T09:34:07.059Z,45.87
2018-01-11T09:36:33.898Z,48.83
2018-01-11T09:39:00.701Z,49.53
2018-01-11T09:41:27.578Z,43.17
2018-01-11T09:43:54.445Z,39.93
2018-01-11T09:46:21.276Z,44.40
2018-01-11T09:48:48.171Z,39.30
2018-01-11T09:51:15.930Z,43.10
2018-01-11T09:53:42.877Z,36.70
2018-01-11T09:56:10.041Z,48.10
2018-01-11T09:58:36.904Z,38.13
2018-01-11T10:01:03.723Z,41.10
2018-01-11T10:03:30.560Z,39.00
2018-01-11T10:05:57.444Z,40.60
2018-01-11T10:08:24.237Z,44.70
2018-01-11T10:10:51.099Z,48.50
2018-01-11T10:13:17.990Z,40.57
2018-01-11T10:15:44.856Z,49.97
2018-01-11T10:18:11.650Z,56.10
2018-01-11T10:20:38.566Z,46.20
2018-01-11T10:23:05.606Z,49.17
2018-01-11T10:25:32.493Z,55.53
2018-01-11T10:27:59.438Z,62.73
2018-01-11T10:30:26.878Z,55.43
2018-01-11T10:32:54.159Z,68.67
2018-01-11T10:35:21.091Z,65.93
2018-01-11T10:37:47.889Z,113.37
2018-01-11T10:40:14.671Z,68.73
2018-01-11T10:42:41.631Z,101.30
2018-01-11T10:45:09.030Z,84.03
2018-01-11T10:47:35.858Z,132.83
2018-01-11T10:50:02.669Z,93.30
2018-01-11T10:52:29.731Z,109.10
2018-01-11T10:54:56.519Z,120.10
2018-01-11T10:57:23.367Z,100.30
2018-01-11T10:59:50.251Z,87.17
2018-01-11T11:02:22.908Z,97.03
2018-01-11T11:07:23.311Z,94.57
2018-01-11T11:09:50.133Z,82.77
2018-01-11T11:12:17.018Z,106.43
2018-01-11T11:14:43.838Z,65.43
2018-01-11T11:17:10.669Z,78.83
2018-01-11T11:19:37.579Z,70.70
2018-01-11T11:22:04.591Z,101.07
2018-01-11T11:24:31.425Z,73.23
2018-01-11T11:26:58.264Z,64.27
2018-01-11T11:29:25.094Z,74.40
2018-01-11T11:31:51.940Z,77.43
2018-01-11T11:34:18.836Z,84.17
2018-01-11T11:36:45.636Z,80.60
2018-01-11T11:39:12.495Z,90.63
2018-01-11T11:41:39.437Z,82.30
2018-01-11T11:44:06.240Z,82.63
2018-01-11T11:46:33.026Z,77.43
2018-01-11T11:48:59.906Z,69.13
2018-01-11T11:51:26.731Z,88.33
2018-01-11T11:53:54.562Z,92.30
2018-01-11T11:56:21.910Z,93.00
2018-01-11T11:58:48.750Z,93.80
2018-01-11T12:01:15.596Z,73.93
2018-01-11T12:03:42.635Z,87.93
2018-01-11T12:06:10.198Z,75.13
2018-01-11T12:08:37.014Z,79.00
2018-01-11T12:11:04.046Z,77.70
2018-01-11T12:13:30.856Z,75.87
2018-01-11T12:15:57.669Z,70.60
2018-01-11T12:18:24.478Z,75.23
2018-01-11T12:20:51.289Z,86.90
2018-01-11T12:23:18.447Z,79.93
2018-01-11T12:25:45.410Z,93.70
2018-01-11T12:28:12.243Z,79.10
2018-01-11T12:30:39.090Z,73.87
2018-01-11T12:33:05.921Z,93.17
2018-01-11T12:35:32.959Z,88.43
2018-01-11T12:37:59.783Z,93.17
2018-01-11T12:40:26.651Z,87.50
2018-01-11T12:42:53.894Z,75.37
2018-01-11T12:45:20.799Z,77.93
2018-01-11T12:47:47.702Z,76.60
2018-01-11T12:50:14.649Z,93.83
2018-01-11T12:52:42.147Z,82.63
2018-01-11T12:55:09.004Z,80.77
2018-01-11T12:57:35.808Z,90.73
2018-01-11T13:00:02.754Z,92.60
2018-01-11T13:02:30.545Z,91.37
2018-01-11T13:04:57.538Z,75.23
2018-01-11T13:07:24.685Z,81.77
2018-01-11T13:09:51.723Z,65.47
2018-01-11T13:12:18.636Z,57.70
2018-01-11T13:14:45.580Z,66.83
2018-01-11T13:17:13.460Z,56.47
2018-01-11T13:19:40.464Z,74.20
2018-01-11T13:22:07.331Z,74.30
2018-01-11T13:24:34.174Z,59.00
2018-01-11T13:27:01.072Z,50.40
2018-01-11T13:29:27.978Z,73.83
2018-01-11T13:31:54.862Z,58.43
2018-01-11T13:34:21.698Z,59.83
2018-01-11T13:36:48.510Z,53.60
2018-01-11T13:39:15.375Z,71.70
2018-01-11T13:41:42.194Z,46.07
2018-01-11T13:44:09.070Z,50.33
2018-01-11T13:46:35.914Z,43.33
2018-01-11T13:49:03.054Z,55.00
2018-01-11T13:51:31.277Z,36.97
2018-01-11T13:53:58.188Z,41.27
2018-01-11T13:56:25.247Z,28.70
2018-01-11T13:58:53.648Z,34.13
2018-01-11T14:01:20.505Z,25.37
2018-01-11T14:03:47.805Z,24.07
2018-01-11T14:06:14.694Z,30.30
2018-01-11T14:08:41.511Z,32.40
2018-01-11T14:11:08.358Z,23.77
2018-01-11T14:13:35.289Z,23.20
2018-01-11T14:16:02.163Z,27.27
2018-01-11T14:18:29.272Z,23.73
2018-01-11T14:20:56.054Z,25.10
2018-01-11T14:23:22.871Z,29.83
2018-01-11T14:25:49.660Z,28.83
2018-01-11T14:28:16.444Z,21.77
2018-01-11T14:30:43.285Z,25.17
2018-01-11T14:33:10.683Z,23.90
2018-01-11T14:35:37.468Z,27.90
2018-01-11T14:38:04.273Z,35.77
2018-01-11T14:40:31.103Z,36.80
2018-01-11T14:42:57.863Z,25.13
2018-01-11T14:45:24.708Z,23.50
2018-01-11T14:47:51.483Z,23.90
2018-01-11T14:50:18.287Z,21.57
2018-01-11T14:52:45.098Z,22.70
2018-01-11T14:55:11.887Z,22.80
2018-01-11T14:57:38.811Z,21.53
2018-01-11T15:00:05.648Z,20.97
2018-01-11T15:02:32.662Z,22.20
2018-01-11T15:04:59.488Z,33.50
2018-01-11T15:07:26.365Z,23.27
2018-01-11T15:09:53.155Z,27.80
2018-01-11T15:12:19.958Z,24.53
2018-01-11T15:14:46.858Z,24.00
2018-01-11T15:17:13.682Z,30.27
2018-01-11T15:19:40.531Z,36.90
2018-01-11T15:22:07.435Z,25.77
2018-01-11T15:24:34.315Z,29.60
2018-01-11T15:27:01.128Z,35.97
2018-01-11T15:29:28.001Z,35.90
2018-01-11T15:31:54.830Z,35.27
2018-01-11T15:34:22.527Z,34.40
2018-01-11T15:36:49.419Z,38.87
2018-01-11T15:39:16.242Z,39.23
2018-01-11T15:41:43.063Z,39.27
2018-01-11T15:44:11.215Z,50.43
2018-01-11T15:46:38.040Z,52.03
2018-01-11T15:49:04.991Z,50.80
2018-01-11T15:51:31.843Z,45.03
2018-01-11T15:53:58.658Z,48.47
2018-01-11T15:56:25.441Z,48.90
2018-01-11T15:58:52.588Z,54.07
2018-01-11T16:01:19.409Z,53.23
2018-01-11T16:03:46.302Z,48.43
2018-01-11T16:06:13.134Z,50.77
2018-01-11T16:08:40.070Z,43.93
2018-01-11T16:11:06.924Z,51.43
2018-01-11T16:13:33.744Z,53.37
2018-01-11T16:16:00.543Z,58.77
2018-01-11T16:18:27.363Z,59.70
2018-01-11T16:20:54.222Z,58.87
2018-01-11T16:23:21.030Z,64.00
2018-01-11T16:25:47.831Z,51.20
2018-01-11T16:28:14.698Z,53.47
2018-01-11T16:30:41.490Z,54.70
2018-01-11T16:33:09.075Z,38.33
2018-01-11T16:35:35.918Z,45.40
2018-01-11T16:40:36.010Z,35.17
2018-01-11T16:43:02.812Z,39.03
2018-01-11T16:45:29.650Z,22.97
2018-01-11T16:47:56.479Z,27.40
2018-01-11T16:50:23.362Z,21.10
2018-01-11T16:52:50.178Z,25.10
2018-01-11T16:55:17.076Z,26.83
2018-01-11T16:57:43.891Z,30.90
2018-01-11T17:00:10.741Z,26.40
2018-01-11T17:02:37.659Z,19.60
2018-01-11T17:05:04.497Z,26.73
2018-01-11T17:07:31.508Z,24.13
2018-01-11T17:09:58.389Z,26.13
2018-01-11T17:12:25.172Z,24.00
2018-01-11T17:14:53.148Z,25.27
2018-01-11T17:17:21.416Z,36.20
2018-01-11T17:19:48.308Z,19.83
2018-01-11T17:22:16.100Z,24.37
2018-01-11T17:24:42.992Z,26.47
2018-01-11T17:27:09.897Z,34.23
2018-01-11T17:29:36.663Z,35.57
2018-01-11T17:32:03.554Z,35.30
2018-01-11T17:34:30.549Z,31.33
2018-01-11T17:36:57.436Z,41.57
2018-01-11T17:39:24.968Z,36.33
2018-01-11T17:41:53.126Z,40.10
2018-01-11T17:44:20.839Z,38.50
2018-01-11T17:46:48.528Z,59.30
2018-01-11T17:49:15.513Z,47.20
2018-01-11T17:51:43.228Z,36.50
2018-01-11T17:54:10.457Z,40.47
2018-01-11T17:56:38.429Z,58.93
2018-01-11T17:59:05.376Z,44.73
2018-01-11T18:01:32.424Z,72.67
2018-01-11T18:03:59.591Z,59.67
2018-01-11T18:06:26.537Z,73.53
2018-01-11T18:08:53.443Z,67.47
2018-01-11T18:11:20.551Z,70.93
2018-01-11T18:14:00.198Z,68.80
2018-01-11T18:16:27.093Z,82.37
2018-01-11T18:18:53.927Z,56.97
2018-01-11T18:21:20.849Z,49.20
2018-01-11T18:23:47.672Z,83.10
2018-01-11T18:26:14.469Z,65.90
2018-01-11T18:28:41.332Z,63.97
2018-01-11T18:31:08.204Z,74.00
2018-01-11T18:33:37.540Z,88.87
2018-01-11T18:36:04.364Z,63.60
2018-01-11T18:38:31.294Z,78.53
2018-01-11T18:40:58.115Z,81.87
2018-01-11T18:43:24.984Z,98.53
2018-01-11T18:45:52.266Z,75.57
2018-01-11T18:48:19.371Z,60.63
2018-01-11T18:50:46.235Z,66.50
2018-01-11T18:53:13.159Z,65.33
2018-01-11T18:55:39.938Z,68.50
2018-01-11T18:58:06.827Z,52.53
2018-01-11T19:00:33.647Z,91.07
2018-01-11T19:03:00.567Z,76.63
2018-01-11T19:05:27.488Z,64.00
2018-01-11T19:07:54.403Z,83.53
2018-01-11T19:10:21.548Z,53.00
2018-01-11T19:12:48.704Z,80.87
2018-01-11T19:15:15.576Z,70.17
2018-01-11T19:17:43.618Z,70.70
2018-01-11T19:20:10.562Z,90.47
2018-01-11T19:22:37.383Z,86.73
2018-01-11T19:25:04.409Z,57.33
2018-01-11T19:27:32.314Z,81.20
2018-01-11T19:30:00.748Z,79.60
2018-01-11T19:32:27.578Z,56.60
2018-01-11T19:34:54.628Z,67.80
2018-01-11T19:37:22.486Z,62.13
2018-01-11T19:40:00.049Z,59.17
2018-01-11T19:42:26.992Z,56.70
2018-01-11T19:44:53.825Z,60.27
2018-01-11T19:47:21.726Z,61.13
2018-01-11T19:49:48.587Z,56.57
2018-01-11T19:52:16.302Z,57.67
2018-01-11T19:54:43.147Z,50.30
2018-01-11T19:57:10.397Z,62.03
2018-01-11T19:59:37.234Z,57.90
2018-01-11T20:02:04.164Z,54.43
2018-01-11T20:04:31.808Z,44.57
2018-01-11T20:06:59.615Z,54.70
2018-01-11T20:09:26.458Z,51.57
2018-01-11T20:11:53.281Z,62.70
2018-01-11T20:14:20.116Z,57.33
2018-01-11T20:16:47.918Z,68.87
2018-01-11T20:19:15.330Z,54.90
2018-01-11T20:21:43.421Z,58.23
2018-01-11T20:24:10.336Z,68.47
2018-01-11T20:26:37.168Z,74.10
2018-01-11T20:29:04.043Z,60.03
2018-01-11T20:31:31.987Z,74.43
2018-01-11T20:33:59.972Z,63.20
2018-01-11T20:36:26.833Z,70.03
2018-01-11T20:38:53.731Z,70.20
2018-01-11T20:41:20.879Z,81.27
2018-01-11T20:43:47.943Z,83.67
2018-01-11T20:46:14.846Z,68.27
2018-01-11T20:48:41.663Z,65.17
2018-01-11T20:51:08.535Z,56.63
2018-01-11T20:53:35.441Z,71.60
2018-01-11T20:56:02.266Z,54.43
2018-01-11T20:58:29.454Z,63.17
2018-01-11T21:00:56.296Z,64.47
2018-01-11T21:03:23.274Z,56.27
2018-01-11T21:05:50.103Z,65.83
2018-01-11T21:08:16.975Z,64.10
2018-01-11T21:10:43.866Z,65.83
2018-01-11T21:13:10.736Z,63.17
2018-01-11T21:15:37.892Z,73.20
2018-01-11T21:18:04.693Z,60.57
2018-01-11T21:20:31.510Z,72.90
2018-01-11T21:22:58.390Z,80.47
2018-01-11T21:25:25.254Z,82.20
2018-01-11T21:27:52.102Z,80.47
2018-01-11T21:30:18.995Z,69.77
2018-01-11T21:32:45.820Z,72.37
2018-01-11T21:35:12.626Z,76.40
2018-01-11T21:37:40.290Z,76.77
2018-01-11T21:40:07.128Z,78.67
2018-01-11T21:42:34.270Z,64.83
2018-01-11T21:45:01.285Z,65.87
2018-01-11T21:47:28.304Z,75.13
2018-01-11T21:49:55.094Z,67.37
2018-01-11T21:52:22.215Z,84.83
2018-01-11T21:54:49.248Z,69.60
2018-01-11T21:57:16.264Z,61.23
2018-01-11T21:59:43.098Z,75.60
2018-01-11T22:02:09.953Z,84.83
2018-01-11T22:04:36.753Z,71.53
2018-01-11T22:07:03.620Z,81.63
2018-01-11T22:09:30.467Z,73.57
2018-01-11T22:11:57.421Z,80.23
2018-01-11T22:14:24.349Z,53.97
2018-01-11T22:16:51.167Z,74.03
2018-01-11T22:19:18.003Z,92.35
2018-01-11T22:21:44.890Z,64.20
2018-01-11T22:24:11.982Z,66.83
2018-01-11T22:26:38.791Z,58.57
2018-01-11T22:29:05.669Z,53.23
2018-01-11T22:31:32.448Z,62.80
2018-01-11T22:33:59.369Z,50.90
2018-01-11T22:36:26.190Z,59.33
2018-01-11T22:38:53.030Z,45.90
2018-01-11T22:41:19.846Z,64.37
2018-01-11T22:43:46.676Z,59.03
2018-01-11T22:46:13.487Z,56.07
2018-01-11T22:48:40.266Z,51.30
2018-01-11T22:53:40.335Z,55.53
2018-01-11T22:56:07.148Z,56.17
2018-01-11T22:58:34.013Z,58.47
2018-01-11T23:01:00.858Z,53.13
2018-01-11T23:03:27.701Z,66.67
2018-01-11T23:05:54.510Z,47.40
2018-01-11T23:08:21.437Z,59.00
2018-01-11T23:10:48.287Z,68.37
2018-01-11T23:13:15.088Z,52.70
2018-01-11T23:15:41.908Z,67.10
2018-01-11T23:18:08.723Z,55.47
2018-01-11T23:20:35.553Z,58.00
2018-01-11T23:23:02.362Z,68.33
2018-01-11T23:25:29.191Z,48.23
2018-01-11T23:27:56.022Z,56.93
2018-01-11T23:30:22.826Z,47.23
2018-01-11T23:32:49.635Z,46.07
